createdAt,value
2023-07-26T00:04:52.779Z,2.70
2023-07-26T00:09:56.163Z,2.83
2023-07-26T00:15:00.755Z,2.70
2023-07-26T00:20:04.681Z,3.20
2023-07-26T00:25:08.783Z,2.70
2023-07-26T00:30:15.595Z,2.73
2023-07-26T00:35:23.160Z,3.00
2023-07-26T00:40:26.436Z,3.00
2023-07-26T00:45:32.623Z,3.40
2023-07-26T00:50:35.839Z,3.20
2023-07-26T00:55:39.469Z,3.13
2023-07-26T01:00:46.320Z,3.50
2023-07-26T01:06:03.586Z,4.23
2023-07-26T01:11:15.269Z,4.43
2023-07-26T01:16:20.039Z,4.03
2023-07-26T01:21:23.236Z,4.20
2023-07-26T01:26:28.019Z,4.40
2023-07-26T01:31:32.011Z,4.60
2023-07-26T01:36:36.667Z,3.97
2023-07-26T01:41:42.097Z,3.90
2023-07-26T01:46:45.374Z,3.90
2023-07-26T01:51:48.714Z,3.83
2023-07-26T01:56:53.216Z,4.17
2023-07-26T02:01:58.118Z,4.07
2023-07-26T02:07:01.617Z,4.10
2023-07-26T02:12:07.336Z,4.13
2023-07-26T02:17:10.783Z,4.00
2023-07-26T02:22:14.019Z,4.00
2023-07-26T02:27:19.270Z,4.03
2023-07-26T02:32:22.409Z,3.80
2023-07-26T02:37:25.902Z,3.50
2023-07-26T02:42:30.510Z,3.13
2023-07-26T02:47:34.361Z,3.10
2023-07-26T02:52:37.764Z,3.30
2023-07-26T02:57:42.295Z,3.03
2023-07-26T03:02:45.579Z,2.50
2023-07-26T03:07:48.786Z,2.63
2023-07-26T03:12:53.349Z,3.07
2023-07-26T03:17:56.862Z,2.80
2023-07-26T03:23:00.066Z,2.87
2023-07-26T03:28:05.405Z,3.40
2023-07-26T03:33:10.484Z,3.00
2023-07-26T03:38:14.145Z,3.77
2023-07-26T03:43:18.717Z,3.40
2023-07-26T03:48:21.938Z,3.67
2023-07-26T03:53:25.107Z,3.30
2023-07-26T03:58:29.919Z,3.77
2023-07-26T04:03:33.283Z,3.90
2023-07-26T04:08:36.536Z,4.00
2023-07-26T04:13:41.138Z,4.00
2023-07-26T04:18:44.448Z,4.27
2023-07-26T04:23:48.464Z,4.00
2023-07-26T04:28:53.042Z,4.67
2023-07-26T04:33:56.489Z,4.37
2023-07-26T04:38:59.676Z,4.33
2023-07-26T04:44:04.185Z,4.60
2023-07-26T04:49:07.468Z,5.03
2023-07-26T04:54:10.585Z,5.67
2023-07-26T04:59:15.150Z,5.83
2023-07-26T05:04:18.313Z,6.00
2023-07-26T05:09:21.919Z,5.90
2023-07-26T05:14:26.531Z,5.23
2023-07-26T05:19:29.747Z,6.10
2023-07-26T05:24:33.082Z,6.53
2023-07-26T05:29:37.663Z,6.70
2023-07-26T05:34:40.824Z,6.90
2023-07-26T05:39:43.932Z,6.13
2023-07-26T05:44:48.490Z,6.90
2023-07-26T05:49:51.697Z,7.20
2023-07-26T05:54:54.927Z,7.53
2023-07-26T05:59:59.472Z,8.10
2023-07-26T06:05:02.681Z,7.87
2023-07-26T06:10:06.565Z,8.53
2023-07-26T06:15:12.482Z,7.97
2023-07-26T06:20:15.637Z,7.30
2023-07-26T06:25:18.832Z,8.20
2023-07-26T06:30:23.408Z,8.80
2023-07-26T06:35:27.255Z,9.00
2023-07-26T06:40:31.047Z,8.33
2023-07-26T06:45:35.864Z,8.67
2023-07-26T06:50:40.991Z,8.83
2023-07-26T06:55:44.233Z,8.83
2023-07-26T07:00:49.042Z,8.70
2023-07-26T07:05:52.228Z,9.53
2023-07-26T07:10:55.355Z,9.33
2023-07-26T07:15:59.940Z,9.27
2023-07-26T07:21:04.510Z,9.10
2023-07-26T07:26:07.708Z,8.53
2023-07-26T07:31:12.275Z,8.93
2023-07-26T07:36:19.277Z,8.40
2023-07-26T07:41:22.565Z,9.13
2023-07-26T07:46:29.880Z,9.30
2023-07-26T07:51:33.350Z,9.20
2023-07-26T07:56:36.601Z,9.17
2023-07-26T08:01:41.207Z,9.43
2023-07-26T08:06:44.411Z,9.50
2023-07-26T08:11:47.552Z,8.90
2023-07-26T08:16:52.237Z,8.27
2023-07-26T08:21:56.745Z,9.37
2023-07-26T08:27:01.330Z,7.43
2023-07-26T08:32:06.598Z,5.57
2023-07-26T08:37:10.349Z,5.87
2023-07-26T08:42:13.820Z,6.97
2023-07-26T08:47:21.140Z,8.00
2023-07-26T08:52:24.421Z,8.33
2023-07-26T08:57:27.938Z,8.83
2023-07-26T09:02:35.315Z,8.17
2023-07-26T09:07:38.536Z,6.47
2023-07-26T09:12:41.690Z,6.80
2023-07-26T09:17:46.307Z,6.97
2023-07-26T09:22:49.478Z,7.20
2023-07-26T09:27:57.224Z,7.33
2023-07-26T09:33:03.270Z,6.67
2023-07-26T09:38:12.117Z,5.87
2023-07-26T09:43:15.496Z,5.40
2023-07-26T09:48:21.501Z,5.13
2023-07-26T09:53:25.197Z,4.90
2023-07-26T09:58:32.816Z,4.57
2023-07-26T10:03:40.455Z,4.20
2023-07-26T10:08:46.555Z,3.60
2023-07-26T10:13:53.723Z,3.40
2023-07-26T10:19:00.893Z,3.67
2023-07-26T10:24:05.969Z,4.40
2023-07-26T10:29:09.111Z,3.93
2023-07-26T10:34:21.240Z,4.03
2023-07-26T10:39:34.053Z,3.80
2023-07-26T10:44:42.410Z,3.90
2023-07-26T10:49:49.004Z,3.20
2023-07-26T10:54:53.502Z,3.00
2023-07-26T10:59:59.118Z,3.50
2023-07-26T11:05:04.719Z,3.33
2023-07-26T11:10:19.484Z,3.50
2023-07-26T11:16:13.518Z,3.57
2023-07-26T11:20:56.410Z,3.27
2023-07-26T11:26:01.792Z,3.60
2023-07-26T11:31:04.988Z,3.00
2023-07-26T11:36:10.220Z,2.30
2023-07-26T11:41:19.143Z,2.10
2023-07-26T11:46:28.580Z,1.70
2023-07-26T11:51:35.009Z,1.70
2023-07-26T11:56:38.664Z,1.80
2023-07-26T12:01:42.488Z,1.80
2023-07-26T12:06:47.582Z,1.60
2023-07-26T12:11:52.596Z,1.83
2023-07-26T12:16:57.241Z,2.00
2023-07-26T12:22:03.120Z,2.20
2023-07-26T12:27:07.042Z,2.13
2023-07-26T12:32:14.003Z,1.50
2023-07-26T12:37:18.646Z,1.10
2023-07-26T12:42:21.895Z,1.13
2023-07-26T12:47:30.389Z,1.30
2023-07-26T12:52:39.042Z,1.17
2023-07-26T12:57:42.301Z,1.37
2023-07-26T13:02:45.743Z,1.27
2023-07-26T13:07:52.156Z,1.20
2023-07-26T13:12:55.946Z,1.33
2023-07-26T13:17:59.136Z,1.17
2023-07-26T13:23:03.637Z,1.17
2023-07-26T13:28:06.918Z,1.20
2023-07-26T13:33:10.188Z,1.30
2023-07-26T13:38:15.256Z,1.10
2023-07-26T13:43:18.682Z,1.30
2023-07-26T13:48:21.905Z,1.20
2023-07-26T13:53:26.499Z,1.20
2023-07-26T13:58:29.661Z,1.30
2023-07-26T14:03:32.847Z,1.20
2023-07-26T14:08:37.351Z,1.10
2023-07-26T14:13:40.893Z,1.40
2023-07-26T14:18:44.111Z,0.90
2023-07-26T14:23:49.123Z,1.10
2023-07-26T14:28:52.652Z,1.20
2023-07-26T14:33:55.779Z,1.00
2023-07-26T14:39:00.337Z,0.83
2023-07-26T14:44:03.645Z,1.00
2023-07-26T14:49:06.762Z,1.10
2023-07-26T14:54:11.238Z,1.20
2023-07-26T14:59:14.350Z,1.10
2023-07-26T15:04:17.665Z,1.20
2023-07-26T15:09:22.665Z,1.10
2023-07-26T15:14:25.792Z,1.40
2023-07-26T15:19:28.923Z,1.07
2023-07-26T15:24:33.912Z,1.30
2023-07-26T15:29:37.139Z,1.37
2023-07-26T15:34:41.974Z,1.20
2023-07-26T15:39:46.474Z,1.20
2023-07-26T15:49:57.746Z,1.10
2023-07-26T15:55:02.250Z,1.13
2023-07-26T16:00:06.378Z,1.10
2023-07-26T16:05:09.921Z,1.17
2023-07-26T16:10:14.491Z,1.10
2023-07-26T16:20:23.833Z,1.20
2023-07-26T16:25:28.382Z,1.30
2023-07-26T16:30:31.551Z,1.30
2023-07-26T16:35:34.848Z,1.40
2023-07-26T16:40:41.036Z,1.20
2023-07-26T16:45:44.176Z,1.70
2023-07-26T16:50:47.445Z,1.50
2023-07-26T16:55:52.018Z,1.37
2023-07-26T17:00:55.247Z,1.73
2023-07-26T17:05:58.529Z,1.73
2023-07-26T17:11:03.852Z,1.80
2023-07-26T17:16:07.413Z,1.60
2023-07-26T17:21:10.726Z,1.60
2023-07-26T17:26:15.231Z,1.60
2023-07-26T17:31:18.505Z,1.50
2023-07-26T17:36:22.528Z,1.20
2023-07-26T17:41:27.029Z,1.37
2023-07-26T17:46:32.003Z,1.30
2023-07-26T17:51:35.582Z,1.50
2023-07-26T17:56:40.075Z,1.50
2023-07-26T18:01:43.276Z,1.60
2023-07-26T18:06:46.465Z,1.30
2023-07-26T18:11:51.103Z,1.40
2023-07-26T18:16:55.538Z,1.80
2023-07-26T18:22:01.769Z,1.77
2023-07-26T18:27:06.723Z,1.70
2023-07-26T18:32:10.618Z,1.20
2023-07-26T18:37:13.848Z,1.60
2023-07-26T18:42:18.406Z,1.70
2023-07-26T18:47:21.857Z,1.60
2023-07-26T18:52:25.004Z,1.70
2023-07-26T18:57:29.590Z,1.57
2023-07-26T19:02:32.864Z,1.40
2023-07-26T19:07:36.050Z,1.63
2023-07-26T19:12:40.673Z,1.27
2023-07-26T19:17:45.042Z,1.30
2023-07-26T19:22:48.446Z,1.50
2023-07-26T19:27:53.154Z,1.50
2023-07-26T19:32:57.531Z,1.40
2023-07-26T19:38:00.824Z,1.60
2023-07-26T19:43:05.450Z,1.90
2023-07-26T19:48:08.605Z,1.87
2023-07-26T19:53:11.876Z,2.00
2023-07-26T19:58:16.836Z,1.90
2023-07-26T20:03:22.907Z,1.70
2023-07-26T20:08:26.689Z,2.10
2023-07-26T20:13:31.269Z,1.97
2023-07-26T20:18:34.376Z,2.00
2023-07-26T20:23:37.610Z,2.20
2023-07-26T20:28:42.321Z,2.10
2023-07-26T20:33:45.449Z,2.13
2023-07-26T20:38:48.701Z,2.20
2023-07-26T20:43:53.297Z,2.50
2023-07-26T20:48:56.471Z,2.10
2023-07-26T20:53:59.653Z,2.43
2023-07-26T20:59:04.443Z,2.53
2023-07-26T21:04:07.610Z,2.50
2023-07-26T21:09:10.724Z,2.10
2023-07-26T21:14:15.231Z,2.57
2023-07-26T21:19:18.387Z,2.33
2023-07-26T21:24:24.087Z,2.20
2023-07-26T21:29:29.123Z,2.20
2023-07-26T21:34:32.329Z,2.17
2023-07-26T21:39:35.585Z,2.50
2023-07-26T21:44:40.115Z,2.60
2023-07-26T21:49:43.237Z,2.07
2023-07-26T21:54:46.361Z,2.37
2023-07-26T21:59:50.885Z,2.30
2023-07-26T22:04:54.124Z,2.23
2023-07-26T22:09:57.647Z,2.20
2023-07-26T22:15:02.337Z,2.10
2023-07-26T22:20:05.911Z,1.90
2023-07-26T22:25:09.561Z,2.27
2023-07-26T22:30:14.270Z,1.70
2023-07-26T22:35:20.006Z,1.80
2023-07-26T22:40:23.114Z,1.97
2023-07-26T22:45:30.689Z,2.10
2023-07-26T22:50:33.837Z,2.10
2023-07-26T22:55:37.180Z,1.97
2023-07-26T23:00:41.694Z,2.10
2023-07-26T23:05:45.014Z,2.10
2023-07-26T23:10:48.252Z,2.20
2023-07-26T23:15:52.789Z,2.00
2023-07-26T23:20:56.437Z,1.57
2023-07-26T23:25:59.562Z,1.90
2023-07-26T23:31:08.186Z,1.87
2023-07-26T23:36:11.467Z,1.97
2023-07-26T23:41:14.569Z,1.77
2023-07-26T23:46:19.238Z,1.80
2023-07-26T23:51:23.605Z,1.50
2023-07-26T23:56:26.740Z,1.97
